Details From CYZG - Salluit
To CYYR - Goose Bay
Flight Number -
Tags decoded
Created
Modified
Stats Distance 719 nm / 1,331 km
Max Altitude 0 ft / 0 m
Waypoints 2
Social Downloads 0
Likes 0
Share VATSIM

Download

Looking for another format? Having issues loading an existing format? Contact us
Advertisement - Login to hide

Notes

Requested: CYZG CYYR

Route

CYZG CYYR

ID Type Via Altitude Latitude Longitude Leg Dist Tot Dist Heading (true) Name
O CYZG APT - 0 ft / 0 m 62.17918˚ -75.66731˚ - 0 nm - Salluit
O CYYR APT - 0 ft / 0 m 53.31882˚ -60.42389˚ 718 nm 718 nm 131° / 144° Goose Bay

Altitude Profile

Advertisement - Login to hide

Weather


0- 5 10 15 20 25 30 35+ Temperature / ° C

Clouds and Precipitation
Forecast for 2017-12-19 00:00 UTC. Updated 2 hours ago

Ground ~20,000 ft ~40,000 ft Winds

CYZG

Details ICAO CYZG (YZG)
Name Salluit
Region Canada
Timezone America/Montreal (UTC-5.0)
Stats Elevation 705 ft / 215 m (AMSL)
Location 62.179178° -75.667313°
Runways 1
Magnetic Variation 22.961° W

METAR

CYZG 182200Z VRB02KT 12SM -SN OVC017 M17/M20 A2937 RMK SC8 SNW CVR/TRACELOOSE/LAST STFD OBS/NEXT191300 UTC SLP975

Decode

TAF

TAF AMD CYZG 181905Z 1819/1822 24012KT 5SM -SN BR FEW005 BKN015 TEMPO 1819/1822 P6SM NSW SCT015 RMK NXT FCST WILL BE ISSUED AT 191445Z

Decode

Departure Runways

ID Width Length Bearing (true) Bearing (mag) Surface Threshold Offset Overrun Length
1 115 ft / 35 m 3,939 ft / 1,201 m 187.01° 209.97° Gravel 0 ft / 0 m 0 ft / 0 m
19 115 ft / 35 m 3,939 ft / 1,201 m 7.01° 29.97° Gravel 0 ft / 0 m 0 ft / 0 m

CYYR

Details ICAO CYYR (YYR)
Name Goose Bay
Region Canada
Timezone America/Goose_Bay (UTC-4.0)
Stats Elevation 160 ft / 49 m (AMSL)
Location 53.318820° -60.423890°
Runways 2
Magnetic Variation 20.961° W

METAR

CYYR 182300Z 00000KT 15SM FEW050 FEW082 M19/M25 A2977 RMK SC2AC1 SLP087

Decode

TAF

TAF AMD CYYR 181923Z 1819/1918 25008KT P6SM BKN080 BECMG 1819/1821 P6SM -SN OVC040 FM190600 21005KT P6SM BKN060 RMK NXT FCST BY 190000Z

Decode

Destination Runways

ID Width Length Bearing (true) Bearing (mag) Surface Threshold Offset Overrun Length
08 209 ft / 64 m 11,055 ft / 3,369 m 54.70° 75.66° Asphalt 0 ft / 0 m 1,000 ft / 305 m
16 200 ft / 61 m 9,515 ft / 2,900 m 132.96° 153.92° Asphalt 0 ft / 0 m 0 ft / 0 m
26 209 ft / 64 m 11,055 ft / 3,369 m 234.73° 255.69° Asphalt 0 ft / 0 m 1,000 ft / 305 m
34 200 ft / 61 m 9,515 ft / 2,900 m 312.99° 333.95° Asphalt 0 ft / 0 m 500 ft / 152 m